sensor_id;sensor_type;location;lat;lon;timestamp;temperature;humidity
11136;DHT22;5622;50.840;4.948;2024-02-21T00:01:58;9.40;99.90
11136;DHT22;5622;50.840;4.948;2024-02-21T00:04:26;9.40;99.90
11136;DHT22;5622;50.840;4.948;2024-02-21T00:06:53;9.40;99.90
11136;DHT22;5622;50.840;4.948;2024-02-21T00:09:22;9.30;99.90
11136;DHT22;5622;50.840;4.948;2024-02-21T00:11:49;9.40;99.90
11136;DHT22;5622;50.840;4.948;2024-02-21T00:14:16;9.40;99.90
11136;DHT22;5622;50.840;4.948;2024-02-21T00:16:43;9.30;99.90
11136;DHT22;5622;50.840;4.948;2024-02-21T00:19:12;9.30;99.90
11136;DHT22;5622;50.840;4.948;2024-02-21T00:21:40;9.40;99.90
11136;DHT22;5622;50.840;4.948;2024-02-21T00:24:07;9.40;99.90
11136;DHT22;5622;50.840;4.948;2024-02-21T00:26:36;9.40;99.90
11136;DHT22;5622;50.840;4.948;2024-02-21T00:29:03;9.30;99.90
11136;DHT22;5622;50.840;4.948;2024-02-21T00:31:31;9.40;99.90
11136;DHT22;5622;50.840;4.948;2024-02-21T00:34:00;9.40;99.90
11136;DHT22;5622;50.840;4.948;2024-02-21T00:36:27;9.40;99.90
11136;DHT22;5622;50.840;4.948;2024-02-21T00:38:54;9.30;99.90
11136;DHT22;5622;50.840;4.948;2024-02-21T00:41:21;9.30;99.90
11136;DHT22;5622;50.840;4.948;2024-02-21T00:43:50;9.40;99.90
11136;DHT22;5622;50.840;4.948;2024-02-21T00:46:17;9.40;99.90
11136;DHT22;5622;50.840;4.948;2024-02-21T00:48:44;9.30;99.90
11136;DHT22;5622;50.840;4.948;2024-02-21T00:51:11;9.40;99.90
11136;DHT22;5622;50.840;4.948;2024-02-21T00:53:38;9.30;99.90
11136;DHT22;5622;50.840;4.948;2024-02-21T00:56:06;9.30;99.90
11136;DHT22;5622;50.840;4.948;2024-02-21T00:58:33;9.30;99.90
11136;DHT22;5622;50.840;4.948;2024-02-21T01:01:04;9.30;99.90
11136;DHT22;5622;50.840;4.948;2024-02-21T01:03:31;9.30;99.90
11136;DHT22;5622;50.840;4.948;2024-02-21T01:05:58;9.30;99.90
11136;DHT22;5622;50.840;4.948;2024-02-21T01:08:25;9.30;99.90
11136;DHT22;5622;50.840;4.948;2024-02-21T01:10:52;9.30;99.90
11136;DHT22;5622;50.840;4.948;2024-02-21T01:13:19;9.30;99.90
11136;DHT22;5622;50.840;4.948;2024-02-21T01:15:46;9.30;99.90
11136;DHT22;5622;50.840;4.948;2024-02-21T01:18:15;9.20;99.90
11136;DHT22;5622;50.840;4.948;2024-02-21T01:20:42;9.30;99.90
11136;DHT22;5622;50.840;4.948;2024-02-21T01:23:09;9.30;99.90
11136;DHT22;5622;50.840;4.948;2024-02-21T01:25:38;9.30;99.90
11136;DHT22;5622;50.840;4.948;2024-02-21T01:28:05;9.30;99.90
11136;DHT22;5622;50.840;4.948;2024-02-21T01:30:32;7.90;99.90
11136;DHT22;5622;50.840;4.948;2024-02-21T01:32:59;9.20;99.90
11136;DHT22;5622;50.840;4.948;2024-02-21T01:35:28;9.10;99.90
11136;DHT22;5622;50.840;4.948;2024-02-21T01:37:56;9.20;99.90
11136;DHT22;5622;50.840;4.948;2024-02-21T01:40:24;9.10;99.90
11136;DHT22;5622;50.840;4.948;2024-02-21T01:42:51;9.10;99.90
11136;DHT22;5622;50.840;4.948;2024-02-21T01:45:20;9.10;99.90
11136;DHT22;5622;50.840;4.948;2024-02-21T01:47:48;9.20;99.90
11136;DHT22;5622;50.840;4.948;2024-02-21T01:50:17;9.20;99.90
11136;DHT22;5622;50.840;4.948;2024-02-21T01:52:47;9.10;99.90
11136;DHT22;5622;50.840;4.948;2024-02-21T01:55:16;8.90;99.90
11136;DHT22;5622;50.840;4.948;2024-02-21T01:57:44;9.20;99.90
11136;DHT22;5622;50.840;4.948;2024-02-21T02:00:14;9.20;99.90
11136;DHT22;5622;50.840;4.948;2024-02-21T02:02:42;9.20;99.90
11136;DHT22;5622;50.840;4.948;2024-02-21T02:05:10;9.10;99.90
11136;DHT22;5622;50.840;4.948;2024-02-21T02:07:38;9.20;99.90
11136;DHT22;5622;50.840;4.948;2024-02-21T02:10:07;9.10;99.90
11136;DHT22;5622;50.840;4.948;2024-02-21T02:12:35;9.10;99.90
11136;DHT22;5622;50.840;4.948;2024-02-21T02:15:03;9.50;99.90
11136;DHT22;5622;50.840;4.948;2024-02-21T02:17:31;9.10;99.90
11136;DHT22;5622;50.840;4.948;2024-02-21T02:19:58;8.70;99.90
11136;DHT22;5622;50.840;4.948;2024-02-21T02:22:28;9.10;99.90
11136;DHT22;5622;50.840;4.948;2024-02-21T02:24:57;9.10;99.90
11136;DHT22;5622;50.840;4.948;2024-02-21T02:27:26;9.10;99.90
11136;DHT22;5622;50.840;4.948;2024-02-21T02:29:54;9.00;99.90
11136;DHT22;5622;50.840;4.948;2024-02-21T02:32:24;9.00;99.90
11136;DHT22;5622;50.840;4.948;2024-02-21T02:34:53;9.10;99.90
11136;DHT22;5622;50.840;4.948;2024-02-21T02:37:21;9.00;99.90
11136;DHT22;5622;50.840;4.948;2024-02-21T02:39:48;9.00;99.90
11136;DHT22;5622;50.840;4.948;2024-02-21T02:42:16;9.00;99.90
11136;DHT22;5622;50.840;4.948;2024-02-21T02:44:43;9.00;99.90
11136;DHT22;5622;50.840;4.948;2024-02-21T02:47:12;9.00;99.90
11136;DHT22;5622;50.840;4.948;2024-02-21T02:49:40;9.10;99.90
11136;DHT22;5622;50.840;4.948;2024-02-21T02:52:08;9.10;99.90
11136;DHT22;5622;50.840;4.948;2024-02-21T02:54:35;9.00;99.90
11136;DHT22;5622;50.840;4.948;2024-02-21T02:57:02;9.10;99.90
11136;DHT22;5622;50.840;4.948;2024-02-21T02:59:33;9.00;99.90
11136;DHT22;5622;50.840;4.948;2024-02-21T03:02:00;9.10;99.90
11136;DHT22;5622;50.840;4.948;2024-02-21T03:04:27;9.10;99.90
11136;DHT22;5622;50.840;4.948;2024-02-21T03:06:54;9.10;99.90
11136;DHT22;5622;50.840;4.948;2024-02-21T03:09:21;9.10;99.90
11136;DHT22;5622;50.840;4.948;2024-02-21T03:11:48;9.10;99.90
11136;DHT22;5622;50.840;4.948;2024-02-21T03:14:15;9.00;99.90
11136;DHT22;5622;50.840;4.948;2024-02-21T03:16:43;9.10;99.90
11136;DHT22;5622;50.840;4.948;2024-02-21T03:19:11;9.10;99.90
11136;DHT22;5622;50.840;4.948;2024-02-21T03:21:38;9.10;99.90
11136;DHT22;5622;50.840;4.948;2024-02-21T03:24:05;9.10;99.90
11136;DHT22;5622;50.840;4.948;2024-02-21T03:26:32;9.10;99.90
11136;DHT22;5622;50.840;4.948;2024-02-21T03:29:00;9.00;99.90
11136;DHT22;5622;50.840;4.948;2024-02-21T03:31:27;9.10;99.90
11136;DHT22;5622;50.840;4.948;2024-02-21T03:33:57;9.10;99.90
11136;DHT22;5622;50.840;4.948;2024-02-21T03:36:24;9.10;99.90
11136;DHT22;5622;50.840;4.948;2024-02-21T03:38:51;9.10;99.90
11136;DHT22;5622;50.840;4.948;2024-02-21T03:41:18;9.10;99.90
11136;DHT22;5622;50.840;4.948;2024-02-21T03:43:46;9.10;99.90
11136;DHT22;5622;50.840;4.948;2024-02-21T03:46:14;9.00;99.90
11136;DHT22;5622;50.840;4.948;2024-02-21T03:48:41;9.10;99.90
11136;DHT22;5622;50.840;4.948;2024-02-21T03:51:12;9.10;99.90
11136;DHT22;5622;50.840;4.948;2024-02-21T03:53:39;9.00;99.90
11136;DHT22;5622;50.840;4.948;2024-02-21T03:56:08;9.00;99.90
11136;DHT22;5622;50.840;4.948;2024-02-21T03:58:35;9.00;99.90
11136;DHT22;5622;50.840;4.948;2024-02-21T04:01:02;9.00;99.90
11136;DHT22;5622;50.840;4.948;2024-02-21T04:03:30;9.10;99.90
11136;DHT22;5622;50.840;4.948;2024-02-21T04:05:58;9.00;99.90
11136;DHT22;5622;50.840;4.948;2024-02-21T04:08:27;9.00;99.90
11136;DHT22;5622;50.840;4.948;2024-02-21T04:10:54;9.00;99.90
11136;DHT22;5622;50.840;4.948;2024-02-21T04:13:21;9.10;99.90
11136;DHT22;5622;50.840;4.948;2024-02-21T04:15:49;9.00;99.90
11136;DHT22;5622;50.840;4.948;2024-02-21T04:18:16;9.10;99.90
11136;DHT22;5622;50.840;4.948;2024-02-21T04:20:44;9.00;99.90
11136;DHT22;5622;50.840;4.948;2024-02-21T04:23:11;9.00;99.90
11136;DHT22;5622;50.840;4.948;2024-02-21T04:25:40;9.00;99.90
11136;DHT22;5622;50.840;4.948;2024-02-21T04:28:07;9.00;99.90
11136;DHT22;5622;50.840;4.948;2024-02-21T04:30:34;9.00;99.90
11136;DHT22;5622;50.840;4.948;2024-02-21T04:33:01;9.00;99.90
11136;DHT22;5622;50.840;4.948;2024-02-21T04:35:28;9.00;99.90
11136;DHT22;5622;50.840;4.948;2024-02-21T04:37:55;9.00;99.90
11136;DHT22;5622;50.840;4.948;2024-02-21T04:40:22;9.00;99.90
11136;DHT22;5622;50.840;4.948;2024-02-21T04:42:51;9.10;99.90
11136;DHT22;5622;50.840;4.948;2024-02-21T04:45:18;9.00;99.90
11136;DHT22;5622;50.840;4.948;2024-02-21T04:47:47;9.00;99.90
11136;DHT22;5622;50.840;4.948;2024-02-21T04:50:14;9.00;99.90
11136;DHT22;5622;50.840;4.948;2024-02-21T04:52:42;9.00;99.90
11136;DHT22;5622;50.840;4.948;2024-02-21T04:55:10;9.00;99.90
11136;DHT22;5622;50.840;4.948;2024-02-21T04:57:37;9.00;99.90
11136;DHT22;5622;50.840;4.948;2024-02-21T05:00:07;9.10;99.90
11136;DHT22;5622;50.840;4.948;2024-02-21T05:02:34;7.90;99.90
11136;DHT22;5622;50.840;4.948;2024-02-21T05:05:02;9.00;99.90
11136;DHT22;5622;50.840;4.948;2024-02-21T05:07:29;9.00;99.90
11136;DHT22;5622;50.840;4.948;2024-02-21T05:09:56;9.10;99.90
11136;DHT22;5622;50.840;4.948;2024-02-21T05:12:23;9.10;99.90
11136;DHT22;5622;50.840;4.948;2024-02-21T05:14:50;9.00;99.90
11136;DHT22;5622;50.840;4.948;2024-02-21T05:17:20;9.00;99.90
11136;DHT22;5622;50.840;4.948;2024-02-21T05:19:47;9.00;99.90
11136;DHT22;5622;50.840;4.948;2024-02-21T05:22:17;9.00;99.90
11136;DHT22;5622;50.840;4.948;2024-02-21T05:24:44;9.10;99.90
11136;DHT22;5622;50.840;4.948;2024-02-21T05:27:14;9.10;99.90
11136;DHT22;5622;50.840;4.948;2024-02-21T05:29:41;9.10;99.90
11136;DHT22;5622;50.840;4.948;2024-02-21T05:32:08;9.10;99.90
11136;DHT22;5622;50.840;4.948;2024-02-21T05:34:36;9.10;99.90
11136;DHT22;5622;50.840;4.948;2024-02-21T05:37:04;9.00;99.90
11136;DHT22;5622;50.840;4.948;2024-02-21T05:39:31;9.00;99.90
11136;DHT22;5622;50.840;4.948;2024-02-21T05:41:58;9.00;99.90
11136;DHT22;5622;50.840;4.948;2024-02-21T05:44:27;9.00;99.90
11136;DHT22;5622;50.840;4.948;2024-02-21T05:46:54;8.60;99.90
11136;DHT22;5622;50.840;4.948;2024-02-21T05:49:23;9.00;99.90
11136;DHT22;5622;50.840;4.948;2024-02-21T05:51:53;9.00;99.90
11136;DHT22;5622;50.840;4.948;2024-02-21T05:54:21;9.00;99.90
11136;DHT22;5622;50.840;4.948;2024-02-21T05:56:49;9.00;99.90
11136;DHT22;5622;50.840;4.948;2024-02-21T05:59:17;9.00;99.90
11136;DHT22;5622;50.840;4.948;2024-02-21T06:01:45;9.00;99.90
11136;DHT22;5622;50.840;4.948;2024-02-21T06:04:12;9.00;99.90
11136;DHT22;5622;50.840;4.948;2024-02-21T06:06:39;9.00;99.90
11136;DHT22;5622;50.840;4.948;2024-02-21T06:09:08;9.00;99.90
11136;DHT22;5622;50.840;4.948;2024-02-21T06:11:35;9.00;99.90
11136;DHT22;5622;50.840;4.948;2024-02-21T06:14:03;9.00;99.90
11136;DHT22;5622;50.840;4.948;2024-02-21T06:16:30;9.00;99.90
11136;DHT22;5622;50.840;4.948;2024-02-21T06:18:57;8.90;99.90
11136;DHT22;5622;50.840;4.948;2024-02-21T06:21:29;8.90;99.90
11136;DHT22;5622;50.840;4.948;2024-02-21T06:23:56;8.90;99.90
11136;DHT22;5622;50.840;4.948;2024-02-21T06:26:24;8.90;99.90
11136;DHT22;5622;50.840;4.948;2024-02-21T06:28:51;8.90;99.90
11136;DHT22;5622;50.840;4.948;2024-02-21T06:31:19;8.90;99.90
11136;DHT22;5622;50.840;4.948;2024-02-21T06:33:46;8.90;99.90
11136;DHT22;5622;50.840;4.948;2024-02-21T06:36:13;8.90;99.90
11136;DHT22;5622;50.840;4.948;2024-02-21T06:38:40;8.90;99.90
11136;DHT22;5622;50.840;4.948;2024-02-21T06:41:15;8.90;99.90
11136;DHT22;5622;50.840;4.948;2024-02-21T06:43:43;8.90;99.90
11136;DHT22;5622;50.840;4.948;2024-02-21T06:46:10;8.80;99.90
11136;DHT22;5622;50.840;4.948;2024-02-21T06:48:38;8.80;99.90
11136;DHT22;5622;50.840;4.948;2024-02-21T06:51:07;8.80;99.90
11136;DHT22;5622;50.840;4.948;2024-02-21T06:53:34;8.70;99.90
11136;DHT22;5622;50.840;4.948;2024-02-21T06:56:04;8.70;99.90
11136;DHT22;5622;50.840;4.948;2024-02-21T06:58:31;8.80;99.90
11136;DHT22;5622;50.840;4.948;2024-02-21T07:00:59;8.70;99.90
11136;DHT22;5622;50.840;4.948;2024-02-21T07:03:27;9.50;99.90
11136;DHT22;5622;50.840;4.948;2024-02-21T07:05:54;8.70;99.90
11136;DHT22;5622;50.840;4.948;2024-02-21T07:08:21;8.70;99.90
11136;DHT22;5622;50.840;4.948;2024-02-21T07:10:48;8.60;99.90
11136;DHT22;5622;50.840;4.948;2024-02-21T07:13:17;8.60;99.90
11136;DHT22;5622;50.840;4.948;2024-02-21T07:15:44;8.20;99.90
11136;DHT22;5622;50.840;4.948;2024-02-21T07:18:12;8.60;99.90
11136;DHT22;5622;50.840;4.948;2024-02-21T07:20:39;8.60;99.90
11136;DHT22;5622;50.840;4.948;2024-02-21T07:23:07;8.60;99.90
11136;DHT22;5622;50.840;4.948;2024-02-21T07:25:34;8.50;99.90
11136;DHT22;5622;50.840;4.948;2024-02-21T07:28:01;8.60;99.90
11136;DHT22;5622;50.840;4.948;2024-02-21T07:30:28;8.50;99.90
11136;DHT22;5622;50.840;4.948;2024-02-21T07:32:55;8.50;99.90
11136;DHT22;5622;50.840;4.948;2024-02-21T07:35:24;8.50;99.90
11136;DHT22;5622;50.840;4.948;2024-02-21T07:37:51;8.50;99.90
11136;DHT22;5622;50.840;4.948;2024-02-21T07:40:18;8.50;99.90
11136;DHT22;5622;50.840;4.948;2024-02-21T07:42:45;8.50;99.90
11136;DHT22;5622;50.840;4.948;2024-02-21T07:45:14;7.20;99.90
11136;DHT22;5622;50.840;4.948;2024-02-21T07:47:41;8.50;99.90
11136;DHT22;5622;50.840;4.948;2024-02-21T07:50:13;8.60;99.90
11136;DHT22;5622;50.840;4.948;2024-02-21T07:52:42;8.50;99.90
11136;DHT22;5622;50.840;4.948;2024-02-21T07:55:09;8.50;99.90
11136;DHT22;5622;50.840;4.948;2024-02-21T07:57:37;8.60;99.90
11136;DHT22;5622;50.840;4.948;2024-02-21T08:00:05;8.60;99.90
11136;DHT22;5622;50.840;4.948;2024-02-21T08:02:35;8.60;99.90
11136;DHT22;5622;50.840;4.948;2024-02-21T08:05:03;8.60;99.90
11136;DHT22;5622;50.840;4.948;2024-02-21T08:07:30;8.60;99.90
11136;DHT22;5622;50.840;4.948;2024-02-21T08:10:02;8.60;99.90
11136;DHT22;5622;50.840;4.948;2024-02-21T08:12:29;8.60;99.90
11136;DHT22;5622;50.840;4.948;2024-02-21T08:14:58;8.70;99.90
11136;DHT22;5622;50.840;4.948;2024-02-21T08:17:25;8.30;99.90
11136;DHT22;5622;50.840;4.948;2024-02-21T08:19:52;8.80;99.90
11136;DHT22;5622;50.840;4.948;2024-02-21T08:22:19;8.80;99.90
11136;DHT22;5622;50.840;4.948;2024-02-21T08:24:46;8.70;99.90
11136;DHT22;5622;50.840;4.948;2024-02-21T08:27:15;8.80;99.90
11136;DHT22;5622;50.840;4.948;2024-02-21T08:29:42;8.80;99.90
11136;DHT22;5622;50.840;4.948;2024-02-21T08:32:09;8.80;99.90
11136;DHT22;5622;50.840;4.948;2024-02-21T08:34:36;8.80;99.90
11136;DHT22;5622;50.840;4.948;2024-02-21T08:37:05;8.80;99.90
11136;DHT22;5622;50.840;4.948;2024-02-21T08:39:33;8.90;99.90
11136;DHT22;5622;50.840;4.948;2024-02-21T08:42:00;8.90;99.90
11136;DHT22;5622;50.840;4.948;2024-02-21T08:44:29;8.90;99.90
11136;DHT22;5622;50.840;4.948;2024-02-21T08:46:59;8.90;99.90
11136;DHT22;5622;50.840;4.948;2024-02-21T08:49:29;8.90;99.90
11136;DHT22;5622;50.840;4.948;2024-02-21T08:51:58;9.00;99.90
11136;DHT22;5622;50.840;4.948;2024-02-21T08:54:25;9.00;99.90
11136;DHT22;5622;50.840;4.948;2024-02-21T08:56:53;9.00;99.90
11136;DHT22;5622;50.840;4.948;2024-02-21T08:59:20;9.00;99.90
11136;DHT22;5622;50.840;4.948;2024-02-21T09:01:52;9.10;99.90
11136;DHT22;5622;50.840;4.948;2024-02-21T09:04:19;9.10;99.90
11136;DHT22;5622;50.840;4.948;2024-02-21T09:06:47;9.10;99.90
11136;DHT22;5622;50.840;4.948;2024-02-21T09:09:16;9.10;99.90
11136;DHT22;5622;50.840;4.948;2024-02-21T09:11:43;9.10;99.90
11136;DHT22;5622;50.840;4.948;2024-02-21T09:14:10;9.10;99.90
11136;DHT22;5622;50.840;4.948;2024-02-21T09:16:38;9.10;99.90
11136;DHT22;5622;50.840;4.948;2024-02-21T09:19:06;9.10;99.90
11136;DHT22;5622;50.840;4.948;2024-02-21T09:21:36;9.20;99.90
11136;DHT22;5622;50.840;4.948;2024-02-21T09:24:04;9.20;99.90
11136;DHT22;5622;50.840;4.948;2024-02-21T09:26:31;9.20;99.90
11136;DHT22;5622;50.840;4.948;2024-02-21T09:28:59;9.20;99.90
11136;DHT22;5622;50.840;4.948;2024-02-21T09:31:26;9.30;99.90
11136;DHT22;5622;50.840;4.948;2024-02-21T09:33:53;9.30;99.90
11136;DHT22;5622;50.840;4.948;2024-02-21T09:36:23;9.40;99.90
11136;DHT22;5622;50.840;4.948;2024-02-21T09:38:50;9.40;99.90
11136;DHT22;5622;50.840;4.948;2024-02-21T09:41:18;9.40;99.90
11136;DHT22;5622;50.840;4.948;2024-02-21T09:43:50;9.40;99.90
11136;DHT22;5622;50.840;4.948;2024-02-21T09:46:21;9.50;99.90
11136;DHT22;5622;50.840;4.948;2024-02-21T09:48:59;9.50;99.90
11136;DHT22;5622;50.840;4.948;2024-02-21T09:51:33;9.50;99.90
11136;DHT22;5622;50.840;4.948;2024-02-21T09:54:02;9.50;99.90
11136;DHT22;5622;50.840;4.948;2024-02-21T09:56:30;9.60;99.90
11136;DHT22;5622;50.840;4.948;2024-02-21T09:58:59;9.60;99.90
11136;DHT22;5622;50.840;4.948;2024-02-21T10:01:30;9.60;99.90
11136;DHT22;5622;50.840;4.948;2024-02-21T10:03:58;9.60;99.90
11136;DHT22;5622;50.840;4.948;2024-02-21T10:06:25;8.80;99.90
11136;DHT22;5622;50.840;4.948;2024-02-21T10:08:54;9.70;99.90
11136;DHT22;5622;50.840;4.948;2024-02-21T10:11:24;9.70;99.90
11136;DHT22;5622;50.840;4.948;2024-02-21T10:14:02;9.80;99.90
11136;DHT22;5622;50.840;4.948;2024-02-21T10:16:29;9.80;99.90
11136;DHT22;5622;50.840;4.948;2024-02-21T10:18:56;9.80;99.90
11136;DHT22;5622;50.840;4.948;2024-02-21T10:21:23;9.80;99.90
11136;DHT22;5622;50.840;4.948;2024-02-21T10:23:53;9.80;99.90
11136;DHT22;5622;50.840;4.948;2024-02-21T10:26:22;9.80;99.90
11136;DHT22;5622;50.840;4.948;2024-02-21T10:28:49;9.90;99.90
11136;DHT22;5622;50.840;4.948;2024-02-21T10:31:24;9.90;99.90
11136;DHT22;5622;50.840;4.948;2024-02-21T10:33:55;9.90;99.90
11136;DHT22;5622;50.840;4.948;2024-02-21T10:36:23;10.00;99.90
11136;DHT22;5622;50.840;4.948;2024-02-21T10:38:51;10.00;99.90
11136;DHT22;5622;50.840;4.948;2024-02-21T10:41:19;10.00;99.90
11136;DHT22;5622;50.840;4.948;2024-02-21T10:43:50;10.10;99.90
11136;DHT22;5622;50.840;4.948;2024-02-21T10:46:20;10.20;99.90
11136;DHT22;5622;50.840;4.948;2024-02-21T10:48:54;10.20;99.90
11136;DHT22;5622;50.840;4.948;2024-02-21T10:51:32;10.20;99.90
11136;DHT22;5622;50.840;4.948;2024-02-21T10:54:09;10.30;99.90
11136;DHT22;5622;50.840;4.948;2024-02-21T10:56:40;10.30;99.90
11136;DHT22;5622;50.840;4.948;2024-02-21T10:59:10;10.30;99.90
11136;DHT22;5622;50.840;4.948;2024-02-21T11:01:37;10.30;99.90
11136;DHT22;5622;50.840;4.948;2024-02-21T11:04:05;10.40;99.90
11136;DHT22;5622;50.840;4.948;2024-02-21T11:06:35;10.40;99.90
11136;DHT22;5622;50.840;4.948;2024-02-21T11:09:03;10.50;99.90
11136;DHT22;5622;50.840;4.948;2024-02-21T11:11:33;10.50;99.90
11136;DHT22;5622;50.840;4.948;2024-02-21T11:14:05;10.50;99.90
11136;DHT22;5622;50.840;4.948;2024-02-21T11:16:39;10.50;99.90
11136;DHT22;5622;50.840;4.948;2024-02-21T11:19:08;10.50;99.90
11136;DHT22;5622;50.840;4.948;2024-02-21T11:21:37;10.50;99.90
11136;DHT22;5622;50.840;4.948;2024-02-21T11:24:05;10.00;99.90
11136;DHT22;5622;50.840;4.948;2024-02-21T11:26:32;10.60;99.90
11136;DHT22;5622;50.840;4.948;2024-02-21T11:29:00;10.60;99.90
11136;DHT22;5622;50.840;4.948;2024-02-21T11:31:39;10.70;99.90
11136;DHT22;5622;50.840;4.948;2024-02-21T11:34:09;10.60;99.90
11136;DHT22;5622;50.840;4.948;2024-02-21T11:36:48;10.70;99.90
11136;DHT22;5622;50.840;4.948;2024-02-21T11:39:21;10.70;99.90
11136;DHT22;5622;50.840;4.948;2024-02-21T11:42:02;10.80;99.90
11136;DHT22;5622;50.840;4.948;2024-02-21T11:44:30;10.80;99.90
11136;DHT22;5622;50.840;4.948;2024-02-21T11:46:58;10.90;99.90
11136;DHT22;5622;50.840;4.948;2024-02-21T11:49:25;10.90;99.90
11136;DHT22;5622;50.840;4.948;2024-02-21T11:52:03;11.00;99.90
11136;DHT22;5622;50.840;4.948;2024-02-21T11:54:31;11.00;99.90
11136;DHT22;5622;50.840;4.948;2024-02-21T11:56:58;10.90;99.90
11136;DHT22;5622;50.840;4.948;2024-02-21T11:59:25;10.90;99.90
11136;DHT22;5622;50.840;4.948;2024-02-21T12:01:53;11.00;99.90
11136;DHT22;5622;50.840;4.948;2024-02-21T12:04:22;10.90;99.90
11136;DHT22;5622;50.840;4.948;2024-02-21T12:06:50;10.90;99.90
11136;DHT22;5622;50.840;4.948;2024-02-21T12:09:17;10.90;99.90
11136;DHT22;5622;50.840;4.948;2024-02-21T12:11:44;10.90;99.90
11136;DHT22;5622;50.840;4.948;2024-02-21T12:14:15;10.80;99.90
11136;DHT22;5622;50.840;4.948;2024-02-21T12:16:45;10.80;99.90
11136;DHT22;5622;50.840;4.948;2024-02-21T12:19:14;10.80;99.90
11136;DHT22;5622;50.840;4.948;2024-02-21T12:21:44;10.80;99.90
11136;DHT22;5622;50.840;4.948;2024-02-21T12:24:15;10.70;99.90
11136;DHT22;5622;50.840;4.948;2024-02-21T12:26:42;10.70;99.90
11136;DHT22;5622;50.840;4.948;2024-02-21T12:29:09;10.80;99.90
11136;DHT22;5622;50.840;4.948;2024-02-21T12:31:37;10.70;99.90
11136;DHT22;5622;50.840;4.948;2024-02-21T12:34:05;10.80;99.90
11136;DHT22;5622;50.840;4.948;2024-02-21T12:36:32;10.80;99.90
11136;DHT22;5622;50.840;4.948;2024-02-21T12:39:01;10.80;99.90
11136;DHT22;5622;50.840;4.948;2024-02-21T12:41:33;10.70;99.90
11136;DHT22;5622;50.840;4.948;2024-02-21T12:44:02;10.70;99.90
11136;DHT22;5622;50.840;4.948;2024-02-21T12:46:29;10.70;99.90
11136;DHT22;5622;50.840;4.948;2024-02-21T12:48:57;10.70;99.90
11136;DHT22;5622;50.840;4.948;2024-02-21T12:51:24;10.70;99.90
11136;DHT22;5622;50.840;4.948;2024-02-21T12:53:52;10.80;99.90
11136;DHT22;5622;50.840;4.948;2024-02-21T12:56:20;10.80;99.90
11136;DHT22;5622;50.840;4.948;2024-02-21T12:58:48;10.80;99.90
11136;DHT22;5622;50.840;4.948;2024-02-21T13:01:17;10.80;99.90
11136;DHT22;5622;50.840;4.948;2024-02-21T13:03:45;10.80;99.90
11136;DHT22;5622;50.840;4.948;2024-02-21T13:06:13;10.90;99.90
11136;DHT22;5622;50.840;4.948;2024-02-21T13:08:44;10.90;99.90
11136;DHT22;5622;50.840;4.948;2024-02-21T13:11:12;10.90;99.90
11136;DHT22;5622;50.840;4.948;2024-02-21T13:13:41;10.90;99.90
11136;DHT22;5622;50.840;4.948;2024-02-21T13:16:08;10.90;99.90
11136;DHT22;5622;50.840;4.948;2024-02-21T13:18:36;10.90;99.90
11136;DHT22;5622;50.840;4.948;2024-02-21T13:21:04;10.90;99.90
11136;DHT22;5622;50.840;4.948;2024-02-21T13:23:31;10.90;99.90
11136;DHT22;5622;50.840;4.948;2024-02-21T13:25:58;10.80;99.90
11136;DHT22;5622;50.840;4.948;2024-02-21T13:28:25;10.80;99.90
11136;DHT22;5622;50.840;4.948;2024-02-21T13:30:54;10.80;99.90
11136;DHT22;5622;50.840;4.948;2024-02-21T13:33:21;10.80;99.90
11136;DHT22;5622;50.840;4.948;2024-02-21T13:35:48;10.90;99.90
11136;DHT22;5622;50.840;4.948;2024-02-21T13:38:16;10.80;99.90
11136;DHT22;5622;50.840;4.948;2024-02-21T13:40:44;10.90;99.90
11136;DHT22;5622;50.840;4.948;2024-02-21T13:43:12;10.90;99.90
11136;DHT22;5622;50.840;4.948;2024-02-21T13:45:39;10.90;99.90
11136;DHT22;5622;50.840;4.948;2024-02-21T13:48:10;10.90;99.90
11136;DHT22;5622;50.840;4.948;2024-02-21T13:50:40;10.80;99.90
11136;DHT22;5622;50.840;4.948;2024-02-21T13:53:09;10.80;99.90
11136;DHT22;5622;50.840;4.948;2024-02-21T13:55:36;10.80;99.90
11136;DHT22;5622;50.840;4.948;2024-02-21T13:58:03;10.80;99.90
11136;DHT22;5622;50.840;4.948;2024-02-21T14:00:30;10.80;99.90
11136;DHT22;5622;50.840;4.948;2024-02-21T14:02:58;10.80;99.90
11136;DHT22;5622;50.840;4.948;2024-02-21T14:05:28;10.80;99.90
11136;DHT22;5622;50.840;4.948;2024-02-21T14:07:55;10.80;99.90
11136;DHT22;5622;50.840;4.948;2024-02-21T14:10:23;10.80;99.90
11136;DHT22;5622;50.840;4.948;2024-02-21T14:12:50;10.70;99.90
11136;DHT22;5622;50.840;4.948;2024-02-21T14:15:17;10.70;99.90
11136;DHT22;5622;50.840;4.948;2024-02-21T14:17:44;10.70;99.90
11136;DHT22;5622;50.840;4.948;2024-02-21T14:20:11;10.70;99.90
11136;DHT22;5622;50.840;4.948;2024-02-21T14:22:41;10.70;99.90
11136;DHT22;5622;50.840;4.948;2024-02-21T14:25:08;10.70;99.90
11136;DHT22;5622;50.840;4.948;2024-02-21T14:27:35;10.70;99.90
11136;DHT22;5622;50.840;4.948;2024-02-21T14:30:03;10.60;99.90
11136;DHT22;5622;50.840;4.948;2024-02-21T14:32:30;10.60;99.90
11136;DHT22;5622;50.840;4.948;2024-02-21T14:34:57;10.60;99.90
11136;DHT22;5622;50.840;4.948;2024-02-21T14:37:25;10.60;99.90
11136;DHT22;5622;50.840;4.948;2024-02-21T14:39:53;10.50;99.90
11136;DHT22;5622;50.840;4.948;2024-02-21T14:42:20;10.70;99.90
11136;DHT22;5622;50.840;4.948;2024-02-21T14:44:48;10.50;99.90
11136;DHT22;5622;50.840;4.948;2024-02-21T14:47:15;10.50;99.90
11136;DHT22;5622;50.840;4.948;2024-02-21T14:49:42;10.40;99.90
11136;DHT22;5622;50.840;4.948;2024-02-21T14:52:09;10.40;99.90
11136;DHT22;5622;50.840;4.948;2024-02-21T14:54:37;10.30;99.90
11136;DHT22;5622;50.840;4.948;2024-02-21T14:57:12;10.30;99.90
11136;DHT22;5622;50.840;4.948;2024-02-21T16:57:45;9.40;99.90
11136;DHT22;5622;50.840;4.948;2024-02-21T21:21:30;9.70;99.90
11136;DHT22;5622;50.840;4.948;2024-02-21T21:24:07;10.50;99.90
